Time;durP1;ratioP1;P1;durP2;ratioP2;P2;SDS_P1;SDS_P2;PMS_P1;PMS_P2;Temp;Humidity;BMP_temperature;BMP_pressure;BME280_temperature;BME280_humidity;BME280_pressure;Samples;Min_cycle;Max_cycle;Signal;HPM_P1;HPM_P2
2021/04/08 13:32:43;;;;;;;;;;;9.40;55.00;;;;;;5110837;27;19916;-93
2021/04/08 13:35:09;;;;;;;;;;;9.20;56.50;;;;;;5111256;28;20372;-92
2021/04/08 13:37:35;;;;;;;;;;;9.10;56.80;;;;;;5112391;28;19918;-93
2021/04/08 13:40:01;;;;;;;;;;;8.90;57.40;;;;;;5111068;28;19973;-92
2021/04/08 13:42:27;;;;;;;;;;;8.70;58.60;;;;;;5106710;28;19912;-90
2021/04/08 13:44:52;;;;;;;;;;;8.50;60.10;;;;;;5109625;28;19970;-86
2021/04/08 13:47:18;;;;;;;;;;;8.30;61.60;;;;;;5112349;28;19911;-86
2021/04/08 13:49:44;;;;;;;;;;;8.10;63.10;;;;;;5109662;28;19912;-89
2021/04/08 13:52:10;;;;;;;;;;;7.80;64.70;;;;;;5109952;28;19912;-87
2021/04/08 13:54:35;;;;;;;;;;;7.50;66.20;;;;;;5111928;28;19912;-87
2021/04/08 13:57:01;;;;;;;;;;;7.20;66.90;;;;;;5108211;28;19919;-86
2021/04/08 13:59:26;;;;;;;;;;;7.00;68.00;;;;;;5109662;28;20272;-86
2021/04/08 14:01:52;;;;;;;;;;;6.80;68.60;;;;;;5111057;28;20365;-86
2021/04/08 14:04:18;;;;;;;;;;;6.70;68.80;;;;;;5109671;28;19915;-86
2021/04/08 14:06:43;;;;;;;;;;;6.70;68.90;;;;;;5111507;28;19916;-86
2021/04/08 14:09:09;;;;;;;;;;;6.80;68.90;;;;;;5110084;28;19922;-86
2021/04/08 14:11:35;;;;;;;;;;;6.90;68.10;;;;;;5110943;28;19951;-86
2021/04/08 14:14:00;;;;;;;;;;;7.10;67.20;;;;;;5110004;28;20002;-86
2021/04/08 14:16:26;;;;;;;;;;;7.20;66.60;;;;;;5107384;28;19912;-87
2021/04/08 14:18:52;;;;;;;;;;;7.30;65.90;;;;;;5110674;28;19912;-88
2021/04/08 14:21:17;;;;;;;;;;;7.40;64.50;;;;;;5109386;28;20440;-85
2021/04/08 14:23:43;;;;;;;;;;;7.40;64.30;;;;;;5110328;28;19916;-86
2021/04/08 14:26:08;;;;;;;;;;;7.40;64.90;;;;;;5109215;28;19951;-87
2021/04/08 14:28:34;;;;;;;;;;;7.30;65.20;;;;;;5110612;28;19915;-87
2021/04/08 14:30:59;;;;;;;;;;;7.30;65.60;;;;;;5109660;28;20369;-86
2021/04/08 14:33:25;;;;;;;;;;;7.20;65.80;;;;;;5109211;28;19957;-87
2021/04/08 14:35:51;;;;;;;;;;;7.20;66.30;;;;;;5109100;28;19915;-86
2021/04/08 14:38:16;;;;;;;;;;;7.20;66.30;;;;;;5108724;28;19919;-86
2021/04/08 14:40:43;;;;;;;;;;;7.10;66.10;;;;;;5108972;28;19928;-85
2021/04/08 14:43:09;;;;;;;;;;;7.10;66.20;;;;;;5101631;28;20261;-86
2021/04/08 14:45:35;;;;;;;;;;;7.00;66.10;;;;;;5096758;28;19994;-85
2021/04/08 14:48:00;;;;;;;;;;;6.90;66.40;;;;;;5094940;28;20001;-87
2021/04/08 14:50:26;;;;;;;;;;;6.80;67.20;;;;;;5096542;28;20050;-86
2021/04/08 14:52:52;;;;;;;;;;;6.70;67.90;;;;;;5095605;28;19915;-86
2021/04/08 14:55:18;;;;;;;;;;;6.50;68.40;;;;;;5097279;28;19908;-86
2021/04/08 14:57:43;;;;;;;;;;;6.40;69.00;;;;;;5096023;28;19919;-85
2021/04/08 15:00:09;;;;;;;;;;;6.30;69.50;;;;;;5095133;28;19931;-86
2021/04/08 15:02:37;;;;;;;;;;;6.20;70.20;;;;;;5093990;28;19916;-86
2021/04/08 15:05:02;;;;;;;;;;;6.10;71.10;;;;;;5095112;28;20602;-86
2021/04/08 15:07:28;;;;;;;;;;;6.10;71.70;;;;;;5094872;28;19969;-85
2021/04/08 15:09:54;;;;;;;;;;;6.10;72.10;;;;;;5096044;28;20319;-86
2021/04/08 15:12:19;;;;;;;;;;;6.10;72.10;;;;;;5097395;28;19923;-85
2021/04/08 15:14:45;;;;;;;;;;;6.20;72.20;;;;;;5095768;28;19916;-86
2021/04/08 15:17:10;;;;;;;;;;;6.40;72.00;;;;;;5099568;28;20351;-86
2021/04/08 15:19:39;;;;;;;;;;;6.50;71.70;;;;;;5095961;28;19908;-85
2021/04/08 15:22:05;;;;;;;;;;;6.50;70.20;;;;;;5095526;28;20372;-86
2021/04/08 15:24:30;;;;;;;;;;;6.50;69.70;;;;;;5095175;28;20006;-86
2021/04/08 15:26:56;;;;;;;;;;;6.60;70.00;;;;;;5094705;28;19999;-85
2021/04/08 15:29:22;;;;;;;;;;;6.60;69.70;;;;;;5129204;27;19908;-86
2021/04/08 15:31:50;;;;;;;;;;;6.60;69.30;;;;;;5094131;28;19963;-86
2021/04/08 15:34:16;;;;;;;;;;;6.60;69.40;;;;;;5095934;28;19908;-86
2021/04/08 15:36:41;;;;;;;;;;;6.60;69.20;;;;;;5092848;28;19912;-86
2021/04/08 15:39:07;;;;;;;;;;;6.70;69.30;;;;;;5095555;28;19908;-86
2021/04/08 15:41:32;;;;;;;;;;;6.70;69.40;;;;;;5095763;28;20343;-86
2021/04/08 15:43:58;;;;;;;;;;;6.70;69.20;;;;;;5096024;28;19912;-86
2021/04/08 15:46:23;;;;;;;;;;;6.70;68.80;;;;;;5094060;28;19912;-86
2021/04/08 15:48:49;;;;;;;;;;;6.60;68.60;;;;;;5095354;28;19908;-86
2021/04/08 15:51:14;;;;;;;;;;;6.60;68.40;;;;;;5090541;28;20019;-87
2021/04/08 15:53:40;;;;;;;;;;;6.50;68.80;;;;;;5094568;28;19912;-86
2021/04/08 15:56:05;;;;;;;;;;;6.50;69.20;;;;;;5093771;28;20433;-87
2021/04/08 15:58:32;;;;;;;;;;;6.50;69.40;;;;;;5094836;28;20361;-86
2021/04/08 16:00:58;;;;;;;;;;;6.40;69.10;;;;;;5095085;28;19961;-86
2021/04/08 17:03:03;;;;;;;;;;;3.70;74.70;;;;;;5095239;27;19925;-89
2021/04/08 17:05:29;;;;;;;;;;;3.60;76.60;;;;;;5091186;28;19913;-86
2021/04/08 17:07:55;;;;;;;;;;;3.60;78.10;;;;;;5063365;28;19916;-85
2021/04/08 17:29:26;;;;;;;;;;;3.40;75.50;;;;;;5112686;27;19918;-88
2021/04/08 17:31:52;;;;;;;;;;;3.20;76.80;;;;;;5096284;28;19920;-89
2021/04/08 17:34:18;;;;;;;;;;;3.20;78.20;;;;;;5105058;28;19920;-88
2021/04/08 17:36:43;;;;;;;;;;;3.20;79.10;;;;;;5089978;28;19912;-88
2021/04/08 17:39:09;;;;;;;;;;;3.10;79.70;;;;;;5089837;28;20026;-88
2021/04/08 17:41:34;;;;;;;;;;;3.10;80.30;;;;;;5106818;28;19925;-88
2021/04/08 17:44:00;;;;;;;;;;;3.10;80.90;;;;;;5099104;28;19919;-88
2021/04/08 17:46:28;;;;;;;;;;;3.10;81.90;;;;;;5094570;28;19965;-88
2021/04/08 17:48:53;;;;;;;;;;;3.10;82.40;;;;;;5092215;28;19916;-89
2021/04/08 17:51:19;;;;;;;;;;;3.20;82.30;;;;;;5101715;28;19920;-88
2021/04/08 17:53:44;;;;;;;;;;;3.30;82.20;;;;;;5098386;28;19994;-88
2021/04/08 17:56:10;;;;;;;;;;;3.30;82.10;;;;;;5110282;28;19908;-88
2021/04/08 17:58:36;;;;;;;;;;;3.20;82.10;;;;;;5092605;28;20369;-86
2021/04/08 18:01:03;;;;;;;;;;;3.20;82.10;;;;;;5091588;28;20011;-86
2021/04/08 18:03:29;;;;;;;;;;;3.20;82.20;;;;;;5090363;28;19970;-85
2021/04/08 18:05:55;;;;;;;;;;;3.20;82.40;;;;;;5091012;28;19912;-85
2021/04/08 18:39:25;;;;;;;;;;;1.70;80.80;;;;;;5112397;27;19912;-89
2021/04/08 18:41:51;;;;;;;;;;;1.70;82.10;;;;;;5112028;28;20002;-88
2021/04/08 18:44:16;;;;;;;;;;;1.60;83.70;;;;;;5112226;28;19916;-88
2021/04/08 18:46:42;;;;;;;;;;;1.60;84.60;;;;;;5110909;28;19912;-89
2021/04/08 18:49:07;;;;;;;;;;;1.60;85.20;;;;;;5111868;28;19957;-88
2021/04/08 18:51:33;;;;;;;;;;;1.70;85.80;;;;;;5112224;28;19961;-88
2021/04/08 18:53:58;;;;;;;;;;;1.70;85.90;;;;;;5118010;28;19962;-89
2021/04/08 18:56:24;;;;;;;;;;;1.70;86.00;;;;;;5108411;28;20459;-85
2021/04/08 18:58:50;;;;;;;;;;;1.80;86.00;;;;;;5110351;28;19919;-86
2021/04/08 19:01:15;;;;;;;;;;;1.80;86.10;;;;;;5108963;28;19913;-86
2021/04/08 19:03:41;;;;;;;;;;;1.80;86.00;;;;;;5091151;28;19909;-86
2021/04/08 19:06:07;;;;;;;;;;;1.80;86.00;;;;;;5089950;28;19991;-86
2021/04/08 19:31:53;;;;;;;35.78;16.83;;;1.00;79.60;;;;;;5103696;27;20412;-88
2021/04/08 19:34:19;;;;;;;37.00;19.35;;;0.90;81.60;;;;;;5089856;28;20024;-90
2021/04/08 19:36:44;;;;;;;37.55;19.88;;;0.80;83.50;;;;;;5089336;28;20372;-89
